sensor_id;sensor_type;location;lat;lon;timestamp;temperature;humidity
52849;DHT22;38714;53.180;5.812;2022-11-02T00:00:56;12.20;99.90
52849;DHT22;38714;53.180;5.812;2022-11-02T00:03:22;12.20;99.90
52849;DHT22;38714;53.180;5.812;2022-11-02T00:05:47;12.20;99.90
52849;DHT22;38714;53.180;5.812;2022-11-02T00:08:13;12.20;99.90
52849;DHT22;38714;53.180;5.812;2022-11-02T00:10:38;12.20;99.90
52849;DHT22;38714;53.180;5.812;2022-11-02T00:13:04;12.20;99.90
52849;DHT22;38714;53.180;5.812;2022-11-02T00:15:32;12.20;99.90
52849;DHT22;38714;53.180;5.812;2022-11-02T00:18:02;12.20;99.90
52849;DHT22;38714;53.180;5.812;2022-11-02T00:20:29;12.20;99.90
52849;DHT22;38714;53.180;5.812;2022-11-02T00:22:57;12.20;99.90
52849;DHT22;38714;53.180;5.812;2022-11-02T00:25:24;12.10;99.90
52849;DHT22;38714;53.180;5.812;2022-11-02T00:27:50;12.10;99.90
52849;DHT22;38714;53.180;5.812;2022-11-02T00:30:16;12.10;99.90
52849;DHT22;38714;53.180;5.812;2022-11-02T00:32:42;12.10;99.90
52849;DHT22;38714;53.180;5.812;2022-11-02T00:35:08;12.10;99.90
52849;DHT22;38714;53.180;5.812;2022-11-02T00:37:34;12.00;99.90
52849;DHT22;38714;53.180;5.812;2022-11-02T00:40:00;12.00;99.90
52849;DHT22;38714;53.180;5.812;2022-11-02T00:42:25;12.00;99.90
52849;DHT22;38714;53.180;5.812;2022-11-02T00:44:51;12.00;99.90
52849;DHT22;38714;53.180;5.812;2022-11-02T00:47:16;12.00;99.90
52849;DHT22;38714;53.180;5.812;2022-11-02T00:49:42;12.00;99.90
52849;DHT22;38714;53.180;5.812;2022-11-02T00:52:08;11.90;99.90
52849;DHT22;38714;53.180;5.812;2022-11-02T00:54:33;11.90;99.90
52849;DHT22;38714;53.180;5.812;2022-11-02T00:56:59;11.80;99.90
52849;DHT22;38714;53.180;5.812;2022-11-02T00:59:25;11.80;99.90
52849;DHT22;38714;53.180;5.812;2022-11-02T01:01:51;11.80;99.90
52849;DHT22;38714;53.180;5.812;2022-11-02T01:04:16;11.70;99.90
52849;DHT22;38714;53.180;5.812;2022-11-02T01:06:43;11.70;99.90
52849;DHT22;38714;53.180;5.812;2022-11-02T01:09:09;11.70;99.90
52849;DHT22;38714;53.180;5.812;2022-11-02T01:11:35;11.70;99.90
52849;DHT22;38714;53.180;5.812;2022-11-02T01:14:01;11.70;99.90
52849;DHT22;38714;53.180;5.812;2022-11-02T01:16:26;11.70;99.90
52849;DHT22;38714;53.180;5.812;2022-11-02T01:18:53;11.70;99.90
52849;DHT22;38714;53.180;5.812;2022-11-02T01:21:19;11.70;99.90
52849;DHT22;38714;53.180;5.812;2022-11-02T01:23:46;11.70;99.90
52849;DHT22;38714;53.180;5.812;2022-11-02T01:26:12;11.80;99.90
52849;DHT22;38714;53.180;5.812;2022-11-02T01:28:37;11.70;99.90
52849;DHT22;38714;53.180;5.812;2022-11-02T01:31:04;11.70;99.90
52849;DHT22;38714;53.180;5.812;2022-11-02T01:33:31;11.80;99.90
52849;DHT22;38714;53.180;5.812;2022-11-02T01:35:56;11.80;99.90
52849;DHT22;38714;53.180;5.812;2022-11-02T01:38:22;11.70;99.90
52849;DHT22;38714;53.180;5.812;2022-11-02T01:40:47;11.70;99.90
52849;DHT22;38714;53.180;5.812;2022-11-02T01:43:26;11.70;99.90
52849;DHT22;38714;53.180;5.812;2022-11-02T01:46:16;11.70;99.90
52849;DHT22;38714;53.180;5.812;2022-11-02T01:51:22;11.60;99.90
52849;DHT22;38714;53.180;5.812;2022-11-02T01:53:52;11.60;99.90
52849;DHT22;38714;53.180;5.812;2022-11-02T01:56:22;11.50;99.90
52849;DHT22;38714;53.180;5.812;2022-11-02T01:58:53;11.50;99.90
52849;DHT22;38714;53.180;5.812;2022-11-02T02:01:21;11.50;99.90
52849;DHT22;38714;53.180;5.812;2022-11-02T02:03:48;11.40;99.90
52849;DHT22;38714;53.180;5.812;2022-11-02T02:06:15;11.40;99.90
52849;DHT22;38714;53.180;5.812;2022-11-02T02:08:44;11.40;99.90
52849;DHT22;38714;53.180;5.812;2022-11-02T02:14:16;11.40;99.90
52849;DHT22;38714;53.180;5.812;2022-11-02T02:19:37;11.30;99.90
52849;DHT22;38714;53.180;5.812;2022-11-02T02:28:02;11.30;99.90
52849;DHT22;38714;53.180;5.812;2022-11-02T02:30:33;11.20;99.90
52849;DHT22;38714;53.180;5.812;2022-11-02T02:33:10;11.20;99.90
52849;DHT22;38714;53.180;5.812;2022-11-02T02:35:47;11.20;99.90
52849;DHT22;38714;53.180;5.812;2022-11-02T02:38:32;11.10;99.90
52849;DHT22;38714;53.180;5.812;2022-11-02T02:41:09;11.10;99.90
52849;DHT22;38714;53.180;5.812;2022-11-02T02:43:45;11.10;99.90
52849;DHT22;38714;53.180;5.812;2022-11-02T02:46:30;11.10;99.90
52849;DHT22;38714;53.180;5.812;2022-11-02T02:48:58;11.10;99.90
52849;DHT22;38714;53.180;5.812;2022-11-02T02:51:27;11.20;99.90
52849;DHT22;38714;53.180;5.812;2022-11-02T02:54:07;11.20;99.90
52849;DHT22;38714;53.180;5.812;2022-11-02T02:56:47;11.20;99.90
52849;DHT22;38714;53.180;5.812;2022-11-02T02:59:22;11.20;99.90
52849;DHT22;38714;53.180;5.812;2022-11-02T03:01:49;11.20;99.90
52849;DHT22;38714;53.180;5.812;2022-11-02T03:04:15;11.20;99.90
52849;DHT22;38714;53.180;5.812;2022-11-02T03:06:43;11.20;99.90
52849;DHT22;38714;53.180;5.812;2022-11-02T03:12:21;11.20;99.90
52849;DHT22;38714;53.180;5.812;2022-11-02T03:15:44;11.20;99.90
52849;DHT22;38714;53.180;5.812;2022-11-02T03:20:55;11.10;99.90
52849;DHT22;38714;53.180;5.812;2022-11-02T03:23:40;11.10;99.90
52849;DHT22;38714;53.180;5.812;2022-11-02T03:26:21;11.10;99.90
52849;DHT22;38714;53.180;5.812;2022-11-02T03:31:46;11.00;99.90
52849;DHT22;38714;53.180;5.812;2022-11-02T03:39:33;11.00;99.90
52849;DHT22;38714;53.180;5.812;2022-11-02T03:42:01;11.00;99.90
52849;DHT22;38714;53.180;5.812;2022-11-02T03:44:29;11.00;99.90
52849;DHT22;38714;53.180;5.812;2022-11-02T03:46:58;11.00;99.90
52849;DHT22;38714;53.180;5.812;2022-11-02T03:49:29;11.00;99.90
52849;DHT22;38714;53.180;5.812;2022-11-02T03:51:59;11.00;99.90
52849;DHT22;38714;53.180;5.812;2022-11-02T03:56:55;11.10;99.90
52849;DHT22;38714;53.180;5.812;2022-11-02T03:59:21;11.10;99.90
52849;DHT22;38714;53.180;5.812;2022-11-02T04:01:49;11.10;99.90
52849;DHT22;38714;53.180;5.812;2022-11-02T04:04:15;11.10;99.90
52849;DHT22;38714;53.180;5.812;2022-11-02T04:06:43;11.00;99.90
52849;DHT22;38714;53.180;5.812;2022-11-02T04:09:11;11.00;99.90
52849;DHT22;38714;53.180;5.812;2022-11-02T04:11:36;11.00;99.90
52849;DHT22;38714;53.180;5.812;2022-11-02T04:14:21;11.00;99.90
52849;DHT22;38714;53.180;5.812;2022-11-02T04:17:02;11.00;99.90
52849;DHT22;38714;53.180;5.812;2022-11-02T04:19:47;11.00;99.90
52849;DHT22;38714;53.180;5.812;2022-11-02T04:22:12;11.00;99.90
52849;DHT22;38714;53.180;5.812;2022-11-02T04:24:57;11.00;99.90
52849;DHT22;38714;53.180;5.812;2022-11-02T04:27:41;11.00;99.90
52849;DHT22;38714;53.180;5.812;2022-11-02T04:30:08;11.00;99.90
52849;DHT22;38714;53.180;5.812;2022-11-02T04:32:41;11.00;99.90
52849;DHT22;38714;53.180;5.812;2022-11-02T04:35:26;11.00;99.90
52849;DHT22;38714;53.180;5.812;2022-11-02T04:37:52;11.00;99.90
52849;DHT22;38714;53.180;5.812;2022-11-02T04:40:36;11.00;99.90
52849;DHT22;38714;53.180;5.812;2022-11-02T04:43:02;11.00;99.90
52849;DHT22;38714;53.180;5.812;2022-11-02T04:45:27;11.00;99.90
52849;DHT22;38714;53.180;5.812;2022-11-02T04:47:58;11.00;99.90
52849;DHT22;38714;53.180;5.812;2022-11-02T04:50:25;11.00;99.90
52849;DHT22;38714;53.180;5.812;2022-11-02T04:52:55;10.90;99.90
52849;DHT22;38714;53.180;5.812;2022-11-02T04:55:21;10.90;99.90
52849;DHT22;38714;53.180;5.812;2022-11-02T04:57:47;10.90;99.90
52849;DHT22;38714;53.180;5.812;2022-11-02T05:00:13;10.90;99.90
52849;DHT22;38714;53.180;5.812;2022-11-02T05:02:38;10.90;99.90
52849;DHT22;38714;53.180;5.812;2022-11-02T05:05:04;10.90;99.90
52849;DHT22;38714;53.180;5.812;2022-11-02T05:07:30;10.90;99.90
52849;DHT22;38714;53.180;5.812;2022-11-02T05:09:56;10.90;99.90
52849;DHT22;38714;53.180;5.812;2022-11-02T05:12:21;10.90;99.90
52849;DHT22;38714;53.180;5.812;2022-11-02T05:14:47;10.90;99.90
52849;DHT22;38714;53.180;5.812;2022-11-02T05:17:13;10.90;99.90
52849;DHT22;38714;53.180;5.812;2022-11-02T05:19:39;10.90;99.90
52849;DHT22;38714;53.180;5.812;2022-11-02T05:22:04;10.90;99.90
52849;DHT22;38714;53.180;5.812;2022-11-02T05:24:31;10.90;99.90
52849;DHT22;38714;53.180;5.812;2022-11-02T05:26:56;10.90;99.90
52849;DHT22;38714;53.180;5.812;2022-11-02T05:29:22;10.90;99.90
52849;DHT22;38714;53.180;5.812;2022-11-02T05:31:48;10.90;99.90
52849;DHT22;38714;53.180;5.812;2022-11-02T05:34:13;10.90;99.90
52849;DHT22;38714;53.180;5.812;2022-11-02T05:36:39;10.90;99.90
52849;DHT22;38714;53.180;5.812;2022-11-02T05:39:05;10.90;99.90
52849;DHT22;38714;53.180;5.812;2022-11-02T05:41:30;10.90;99.90
52849;DHT22;38714;53.180;5.812;2022-11-02T05:43:56;10.90;99.90
52849;DHT22;38714;53.180;5.812;2022-11-02T05:46:21;10.90;99.90
52849;DHT22;38714;53.180;5.812;2022-11-02T05:48:47;10.90;99.90
52849;DHT22;38714;53.180;5.812;2022-11-02T05:51:12;10.80;99.90
52849;DHT22;38714;53.180;5.812;2022-11-02T05:53:38;10.90;99.90
52849;DHT22;38714;53.180;5.812;2022-11-02T05:56:05;10.80;99.90
52849;DHT22;38714;53.180;5.812;2022-11-02T05:58:31;10.90;99.90
52849;DHT22;38714;53.180;5.812;2022-11-02T06:01:01;10.90;99.90
52849;DHT22;38714;53.180;5.812;2022-11-02T06:03:28;10.90;99.90
52849;DHT22;38714;53.180;5.812;2022-11-02T06:05:56;10.80;99.90
52849;DHT22;38714;53.180;5.812;2022-11-02T06:08:21;10.90;99.90
52849;DHT22;38714;53.180;5.812;2022-11-02T06:10:47;10.90;99.90
52849;DHT22;38714;53.180;5.812;2022-11-02T06:13:13;10.90;99.90
52849;DHT22;38714;53.180;5.812;2022-11-02T06:15:39;10.90;99.90
52849;DHT22;38714;53.180;5.812;2022-11-02T06:18:04;11.00;99.90
52849;DHT22;38714;53.180;5.812;2022-11-02T06:20:30;11.00;99.90
52849;DHT22;38714;53.180;5.812;2022-11-02T06:22:55;11.00;99.90
52849;DHT22;38714;53.180;5.812;2022-11-02T06:25:21;11.00;99.90
52849;DHT22;38714;53.180;5.812;2022-11-02T06:27:51;11.00;99.90
52849;DHT22;38714;53.180;5.812;2022-11-02T06:30:17;11.00;99.90
52849;DHT22;38714;53.180;5.812;2022-11-02T06:32:48;11.00;99.90
52849;DHT22;38714;53.180;5.812;2022-11-02T06:35:15;10.90;99.90
52849;DHT22;38714;53.180;5.812;2022-11-02T06:37:41;10.80;99.90
52849;DHT22;38714;53.180;5.812;2022-11-02T06:40:07;10.70;99.90
52849;DHT22;38714;53.180;5.812;2022-11-02T06:42:33;10.70;99.90
52849;DHT22;38714;53.180;5.812;2022-11-02T06:44:58;10.60;99.90
52849;DHT22;38714;53.180;5.812;2022-11-02T06:47:35;10.60;99.90
52849;DHT22;38714;53.180;5.812;2022-11-02T06:50:01;10.60;99.90
52849;DHT22;38714;53.180;5.812;2022-11-02T06:52:28;10.60;99.90
52849;DHT22;38714;53.180;5.812;2022-11-02T06:54:53;10.50;99.90
52849;DHT22;38714;53.180;5.812;2022-11-02T06:57:20;10.50;99.90
52849;DHT22;38714;53.180;5.812;2022-11-02T06:59:46;10.50;99.90
52849;DHT22;38714;53.180;5.812;2022-11-02T07:02:11;10.50;99.90
52849;DHT22;38714;53.180;5.812;2022-11-02T07:04:37;10.60;99.90
52849;DHT22;38714;53.180;5.812;2022-11-02T07:07:02;10.50;99.90
52849;DHT22;38714;53.180;5.812;2022-11-02T07:09:28;10.60;99.90
52849;DHT22;38714;53.180;5.812;2022-11-02T07:11:53;10.50;99.90
52849;DHT22;38714;53.180;5.812;2022-11-02T07:14:19;10.50;99.90
52849;DHT22;38714;53.180;5.812;2022-11-02T07:16:45;10.50;99.90
52849;DHT22;38714;53.180;5.812;2022-11-02T07:19:10;10.60;99.90
52849;DHT22;38714;53.180;5.812;2022-11-02T07:21:36;10.50;99.90
52849;DHT22;38714;53.180;5.812;2022-11-02T07:24:01;10.50;99.90
52849;DHT22;38714;53.180;5.812;2022-11-02T07:26:27;10.50;99.90
52849;DHT22;38714;53.180;5.812;2022-11-02T07:28:53;10.50;99.90
52849;DHT22;38714;53.180;5.812;2022-11-02T07:31:18;10.60;99.90
52849;DHT22;38714;53.180;5.812;2022-11-02T07:33:44;10.50;99.90
52849;DHT22;38714;53.180;5.812;2022-11-02T07:36:10;10.60;99.90
52849;DHT22;38714;53.180;5.812;2022-11-02T07:38:35;10.60;99.90
52849;DHT22;38714;53.180;5.812;2022-11-02T07:41:01;10.70;99.90
52849;DHT22;38714;53.180;5.812;2022-11-02T07:43:26;10.70;99.90
52849;DHT22;38714;53.180;5.812;2022-11-02T07:45:53;10.80;99.90
52849;DHT22;38714;53.180;5.812;2022-11-02T07:48:19;10.80;99.90
52849;DHT22;38714;53.180;5.812;2022-11-02T07:50:45;10.80;99.90
52849;DHT22;38714;53.180;5.812;2022-11-02T07:53:10;11.00;99.90
52849;DHT22;38714;53.180;5.812;2022-11-02T07:55:36;11.00;99.90
52849;DHT22;38714;53.180;5.812;2022-11-02T07:58:07;11.10;99.90
52849;DHT22;38714;53.180;5.812;2022-11-02T08:00:36;11.10;99.90
52849;DHT22;38714;53.180;5.812;2022-11-02T08:03:03;11.20;99.90
52849;DHT22;38714;53.180;5.812;2022-11-02T08:05:32;11.10;99.90
52849;DHT22;38714;53.180;5.812;2022-11-02T08:08:09;11.10;99.90
52849;DHT22;38714;53.180;5.812;2022-11-02T08:10:35;11.10;99.90
52849;DHT22;38714;53.180;5.812;2022-11-02T08:13:01;11.10;99.90
52849;DHT22;38714;53.180;5.812;2022-11-02T08:15:27;11.10;99.90
52849;DHT22;38714;53.180;5.812;2022-11-02T08:18:13;11.10;99.90
52849;DHT22;38714;53.180;5.812;2022-11-02T08:20:39;11.10;99.90
52849;DHT22;38714;53.180;5.812;2022-11-02T08:23:05;11.20;99.90
52849;DHT22;38714;53.180;5.812;2022-11-02T08:25:32;11.10;99.90
52849;DHT22;38714;53.180;5.812;2022-11-02T08:27:59;11.10;99.90
52849;DHT22;38714;53.180;5.812;2022-11-02T08:30:29;11.20;99.90
52849;DHT22;38714;53.180;5.812;2022-11-02T08:33:01;11.20;99.90
52849;DHT22;38714;53.180;5.812;2022-11-02T08:35:27;11.20;99.90
52849;DHT22;38714;53.180;5.812;2022-11-02T08:37:54;11.20;99.90
52849;DHT22;38714;53.180;5.812;2022-11-02T08:40:20;11.20;99.90
52849;DHT22;38714;53.180;5.812;2022-11-02T08:42:46;11.20;99.90
52849;DHT22;38714;53.180;5.812;2022-11-02T08:45:11;11.30;99.90
52849;DHT22;38714;53.180;5.812;2022-11-02T08:47:40;11.30;99.90
52849;DHT22;38714;53.180;5.812;2022-11-02T08:50:08;11.30;99.90
52849;DHT22;38714;53.180;5.812;2022-11-02T08:52:37;11.40;99.90
52849;DHT22;38714;53.180;5.812;2022-11-02T08:55:03;11.40;99.90
52849;DHT22;38714;53.180;5.812;2022-11-02T08:57:29;11.50;99.90
52849;DHT22;38714;53.180;5.812;2022-11-02T08:59:55;11.50;99.90
52849;DHT22;38714;53.180;5.812;2022-11-02T09:02:20;11.50;99.90
52849;DHT22;38714;53.180;5.812;2022-11-02T09:04:46;11.50;99.90
52849;DHT22;38714;53.180;5.812;2022-11-02T09:07:12;11.60;99.90
52849;DHT22;38714;53.180;5.812;2022-11-02T09:09:37;11.70;99.90
52849;DHT22;38714;53.180;5.812;2022-11-02T09:12:03;11.70;99.90
52849;DHT22;38714;53.180;5.812;2022-11-02T09:14:29;11.70;99.90
52849;DHT22;38714;53.180;5.812;2022-11-02T09:16:54;11.80;99.90
52849;DHT22;38714;53.180;5.812;2022-11-02T09:19:20;11.80;99.90
52849;DHT22;38714;53.180;5.812;2022-11-02T09:21:45;11.80;99.90
52849;DHT22;38714;53.180;5.812;2022-11-02T09:24:12;11.90;99.90
52849;DHT22;38714;53.180;5.812;2022-11-02T09:26:37;11.90;99.90
52849;DHT22;38714;53.180;5.812;2022-11-02T09:29:03;11.90;99.90
52849;DHT22;38714;53.180;5.812;2022-11-02T09:31:29;11.90;99.90
52849;DHT22;38714;53.180;5.812;2022-11-02T09:33:54;11.80;99.90
52849;DHT22;38714;53.180;5.812;2022-11-02T09:36:20;11.90;99.90
52849;DHT22;38714;53.180;5.812;2022-11-02T09:38:46;11.90;99.90
52849;DHT22;38714;53.180;5.812;2022-11-02T09:41:16;11.90;99.90
52849;DHT22;38714;53.180;5.812;2022-11-02T09:44:02;12.00;99.90
52849;DHT22;38714;53.180;5.812;2022-11-02T09:46:38;12.00;99.90
52849;DHT22;38714;53.180;5.812;2022-11-02T09:49:13;12.00;99.90
52849;DHT22;38714;53.180;5.812;2022-11-02T09:51:51;12.00;99.90
52849;DHT22;38714;53.180;5.812;2022-11-02T09:54:33;12.00;99.90
52849;DHT22;38714;53.180;5.812;2022-11-02T09:57:04;12.00;99.90
52849;DHT22;38714;53.180;5.812;2022-11-02T09:59:30;12.10;99.90
52849;DHT22;38714;53.180;5.812;2022-11-02T10:02:30;12.10;99.90
52849;DHT22;38714;53.180;5.812;2022-11-02T10:08:20;12.00;99.90
52849;DHT22;38714;53.180;5.812;2022-11-02T10:11:11;11.90;99.90
52849;DHT22;38714;53.180;5.812;2022-11-02T10:13:53;11.90;99.90
52849;DHT22;38714;53.180;5.812;2022-11-02T10:17:08;11.80;99.90
52849;DHT22;38714;53.180;5.812;2022-11-02T10:19:38;11.80;99.90
52849;DHT22;38714;53.180;5.812;2022-11-02T10:22:04;11.80;99.90
52849;DHT22;38714;53.180;5.812;2022-11-02T10:24:39;11.80;99.90
52849;DHT22;38714;53.180;5.812;2022-11-02T10:32:11;11.80;99.90
52849;DHT22;38714;53.180;5.812;2022-11-02T10:34:38;11.70;99.90
52849;DHT22;38714;53.180;5.812;2022-11-02T10:37:14;11.80;99.90
52849;DHT22;38714;53.180;5.812;2022-11-02T10:48:27;11.90;99.90
52849;DHT22;38714;53.180;5.812;2022-11-02T10:51:08;11.90;99.90
52849;DHT22;38714;53.180;5.812;2022-11-02T10:53:48;12.00;99.90
52849;DHT22;38714;53.180;5.812;2022-11-02T11:01:24;12.00;99.90
52849;DHT22;38714;53.180;5.812;2022-11-02T11:03:57;12.00;99.90
52849;DHT22;38714;53.180;5.812;2022-11-02T11:06:29;11.90;99.90
52849;DHT22;38714;53.180;5.812;2022-11-02T11:09:02;11.90;99.90
52849;DHT22;38714;53.180;5.812;2022-11-02T11:11:32;12.00;99.90
52849;DHT22;38714;53.180;5.812;2022-11-02T11:16:34;12.00;99.90
52849;DHT22;38714;53.180;5.812;2022-11-02T11:19:01;12.10;99.90
52849;DHT22;38714;53.180;5.812;2022-11-02T11:21:39;12.10;99.90
52849;DHT22;38714;53.180;5.812;2022-11-02T11:24:25;12.20;99.90
52849;DHT22;38714;53.180;5.812;2022-11-02T11:27:17;12.20;99.90
52849;DHT22;38714;53.180;5.812;2022-11-02T11:29:57;12.30;99.90
52849;DHT22;38714;53.180;5.812;2022-11-02T11:32:25;12.30;99.90
52849;DHT22;38714;53.180;5.812;2022-11-02T11:35:06;12.30;99.90
52849;DHT22;38714;53.180;5.812;2022-11-02T11:37:34;12.30;99.90
52849;DHT22;38714;53.180;5.812;2022-11-02T11:40:03;12.30;99.90
52849;DHT22;38714;53.180;5.812;2022-11-02T11:42:34;12.30;99.90
52849;DHT22;38714;53.180;5.812;2022-11-02T11:45:05;12.30;99.90
52849;DHT22;38714;53.180;5.812;2022-11-02T11:47:34;12.30;99.90
52849;DHT22;38714;53.180;5.812;2022-11-02T11:50:09;12.30;99.90
52849;DHT22;38714;53.180;5.812;2022-11-02T11:52:40;12.30;99.90
52849;DHT22;38714;53.180;5.812;2022-11-02T11:55:26;12.40;99.90
52849;DHT22;38714;53.180;5.812;2022-11-02T12:00:31;12.30;99.90
52849;DHT22;38714;53.180;5.812;2022-11-02T12:03:04;12.30;99.90
52849;DHT22;38714;53.180;5.812;2022-11-02T12:11:46;12.30;99.90
52849;DHT22;38714;53.180;5.812;2022-11-02T12:24:11;12.40;99.90
52849;DHT22;38714;53.180;5.812;2022-11-02T12:26:27;12.40;99.90
52849;DHT22;38714;53.180;5.812;2022-11-02T12:29:00;12.60;99.90
52849;DHT22;38714;53.180;5.812;2022-11-02T12:31:39;12.60;99.90
52849;DHT22;38714;53.180;5.812;2022-11-02T12:37:07;12.70;99.90
52849;DHT22;38714;53.180;5.812;2022-11-02T12:39:53;12.80;99.90
52849;DHT22;38714;53.180;5.812;2022-11-02T12:45:04;12.80;99.90
52849;DHT22;38714;53.180;5.812;2022-11-02T12:47:48;12.80;99.90
52849;DHT22;38714;53.180;5.812;2022-11-02T12:55:59;12.70;99.90
52849;DHT22;38714;53.180;5.812;2022-11-02T12:58:32;12.70;99.90
52849;DHT22;38714;53.180;5.812;2022-11-02T13:01:19;12.70;99.90
52849;DHT22;38714;53.180;5.812;2022-11-02T13:03:56;12.70;99.90
52849;DHT22;38714;53.180;5.812;2022-11-02T13:06:45;12.70;99.90
52849;DHT22;38714;53.180;5.812;2022-11-02T13:12:19;12.70;99.90
52849;DHT22;38714;53.180;5.812;2022-11-02T13:14:47;12.60;99.90
52849;DHT22;38714;53.180;5.812;2022-11-02T13:17:35;12.70;99.90
52849;DHT22;38714;53.180;5.812;2022-11-02T13:25:48;12.60;99.90
52849;DHT22;38714;53.180;5.812;2022-11-02T13:30:53;12.60;99.90
52849;DHT22;38714;53.180;5.812;2022-11-02T13:34:09;12.70;99.90
52849;DHT22;38714;53.180;5.812;2022-11-02T13:36:10;12.70;99.90
52849;DHT22;38714;53.180;5.812;2022-11-02T13:38:51;12.70;99.90
52849;DHT22;38714;53.180;5.812;2022-11-02T13:41:31;12.70;99.90
52849;DHT22;38714;53.180;5.812;2022-11-02T13:49:50;12.70;99.90
52849;DHT22;38714;53.180;5.812;2022-11-02T13:52:26;12.70;99.90
52849;DHT22;38714;53.180;5.812;2022-11-02T13:54:59;12.70;99.90
52849;DHT22;38714;53.180;5.812;2022-11-02T13:57:36;12.70;99.90
52849;DHT22;38714;53.180;5.812;2022-11-02T14:00:25;12.70;99.90
52849;DHT22;38714;53.180;5.812;2022-11-02T14:03:24;12.70;99.90
52849;DHT22;38714;53.180;5.812;2022-11-02T14:06:07;12.70;99.90
52849;DHT22;38714;53.180;5.812;2022-11-02T14:08:37;12.70;99.90
52849;DHT22;38714;53.180;5.812;2022-11-02T14:19:20;12.60;99.90
52849;DHT22;38714;53.180;5.812;2022-11-02T14:35:12;12.30;99.90
52849;DHT22;38714;53.180;5.812;2022-11-02T14:40:44;12.30;99.90
52849;DHT22;38714;53.180;5.812;2022-11-02T14:43:39;12.20;99.90
52849;DHT22;38714;53.180;5.812;2022-11-02T14:46:31;12.20;99.90
52849;DHT22;38714;53.180;5.812;2022-11-02T14:49:01;12.20;99.90
52849;DHT22;38714;53.180;5.812;2022-11-02T14:51:32;12.20;99.90
52849;DHT22;38714;53.180;5.812;2022-11-02T14:54:16;12.20;99.90
52849;DHT22;38714;53.180;5.812;2022-11-02T14:56:50;12.20;99.90
52849;DHT22;38714;53.180;5.812;2022-11-02T14:59:24;12.20;99.90
52849;DHT22;38714;53.180;5.812;2022-11-02T15:01:59;12.20;99.90
52849;DHT22;38714;53.180;5.812;2022-11-02T15:04:27;12.10;99.90
52849;DHT22;38714;53.180;5.812;2022-11-02T15:07:02;12.10;99.90
52849;DHT22;38714;53.180;5.812;2022-11-02T15:09:51;12.10;99.90
52849;DHT22;38714;53.180;5.812;2022-11-02T15:12:30;12.10;99.90
52849;DHT22;38714;53.180;5.812;2022-11-02T15:17:52;12.00;99.90
52849;DHT22;38714;53.180;5.812;2022-11-02T15:20:27;12.00;99.90
52849;DHT22;38714;53.180;5.812;2022-11-02T15:25:40;12.00;99.90
52849;DHT22;38714;53.180;5.812;2022-11-02T15:28:14;12.00;99.90
52849;DHT22;38714;53.180;5.812;2022-11-02T15:30:46;12.00;99.90
52849;DHT22;38714;53.180;5.812;2022-11-02T15:35:52;12.00;99.90
52849;DHT22;38714;53.180;5.812;2022-11-02T15:38:26;12.00;99.90
52849;DHT22;38714;53.180;5.812;2022-11-02T15:41:17;12.00;99.90
52849;DHT22;38714;53.180;5.812;2022-11-02T15:43:57;12.00;99.90
52849;DHT22;38714;53.180;5.812;2022-11-02T15:46:55;12.00;99.90
52849;DHT22;38714;53.180;5.812;2022-11-02T15:55:21;11.90;99.90
52849;DHT22;38714;53.180;5.812;2022-11-02T16:03:33;11.80;99.90
52849;DHT22;38714;53.180;5.812;2022-11-02T16:05:59;11.80;99.90
52849;DHT22;38714;53.180;5.812;2022-11-02T16:08:34;11.80;99.90
52849;DHT22;38714;53.180;5.812;2022-11-02T16:11:13;11.80;99.90
52849;DHT22;38714;53.180;5.812;2022-11-02T16:13:45;11.80;99.90
52849;DHT22;38714;53.180;5.812;2022-11-02T16:16:16;11.80;99.90
52849;DHT22;38714;53.180;5.812;2022-11-02T16:18:50;11.70;99.90
52849;DHT22;38714;53.180;5.812;2022-11-02T16:21:17;11.70;99.90
52849;DHT22;38714;53.180;5.812;2022-11-02T16:23:56;11.70;99.90
52849;DHT22;38714;53.180;5.812;2022-11-02T16:26:27;11.70;99.90
52849;DHT22;38714;53.180;5.812;2022-11-02T16:28:56;11.60;99.90
52849;DHT22;38714;53.180;5.812;2022-11-02T16:31:24;11.70;99.90
52849;DHT22;38714;53.180;5.812;2022-11-02T16:33:56;11.60;99.90
52849;DHT22;38714;53.180;5.812;2022-11-02T16:36:25;11.60;99.90
52849;DHT22;38714;53.180;5.812;2022-11-02T16:41:25;11.60;99.90
52849;DHT22;38714;53.180;5.812;2022-11-02T16:43:52;11.50;99.90
52849;DHT22;38714;53.180;5.812;2022-11-02T16:46:30;11.50;99.90
52849;DHT22;38714;53.180;5.812;2022-11-02T16:49:18;11.50;99.90
52849;DHT22;38714;53.180;5.812;2022-11-02T16:54:39;11.40;99.90
52849;DHT22;38714;53.180;5.812;2022-11-02T16:57:18;11.40;99.90
52849;DHT22;38714;53.180;5.812;2022-11-02T17:02:18;11.40;99.90
52849;DHT22;38714;53.180;5.812;2022-11-02T17:04:46;11.40;99.90
52849;DHT22;38714;53.180;5.812;2022-11-02T17:07:26;11.30;99.90
52849;DHT22;38714;53.180;5.812;2022-11-02T17:09:55;11.30;99.90
52849;DHT22;38714;53.180;5.812;2022-11-02T17:12:38;11.30;99.90
52849;DHT22;38714;53.180;5.812;2022-11-02T17:15:17;11.20;99.90
52849;DHT22;38714;53.180;5.812;2022-11-02T17:17:43;11.20;99.90
52849;DHT22;38714;53.180;5.812;2022-11-02T17:22:37;11.10;99.90
52849;DHT22;38714;53.180;5.812;2022-11-02T17:25:20;11.10;99.90
52849;DHT22;38714;53.180;5.812;2022-11-02T17:27:46;11.10;99.90
52849;DHT22;38714;53.180;5.812;2022-11-02T17:32:57;11.00;99.90
52849;DHT22;38714;53.180;5.812;2022-11-02T17:35:23;11.00;99.90
52849;DHT22;38714;53.180;5.812;2022-11-02T17:37:49;11.00;99.90
52849;DHT22;38714;53.180;5.812;2022-11-02T17:40:14;10.90;99.90
52849;DHT22;38714;53.180;5.812;2022-11-02T17:42:40;10.90;99.90
52849;DHT22;38714;53.180;5.812;2022-11-02T17:45:29;10.90;99.90
52849;DHT22;38714;53.180;5.812;2022-11-02T17:47:56;10.90;99.90
52849;DHT22;38714;53.180;5.812;2022-11-02T17:50:24;10.90;99.90
52849;DHT22;38714;53.180;5.812;2022-11-02T17:52:51;10.80;99.90
52849;DHT22;38714;53.180;5.812;2022-11-02T17:55:20;10.80;99.90
52849;DHT22;38714;53.180;5.812;2022-11-02T17:57:46;10.80;99.90
52849;DHT22;38714;53.180;5.812;2022-11-02T18:00:26;10.80;99.90
52849;DHT22;38714;53.180;5.812;2022-11-02T18:02:58;10.80;99.90
52849;DHT22;38714;53.180;5.812;2022-11-02T18:07:50;10.70;99.90
52849;DHT22;38714;53.180;5.812;2022-11-02T18:10:17;10.70;99.90
52849;DHT22;38714;53.180;5.812;2022-11-02T18:12:43;10.70;99.90
52849;DHT22;38714;53.180;5.812;2022-11-02T18:15:17;10.70;99.90
52849;DHT22;38714;53.180;5.812;2022-11-02T18:17:44;10.70;99.90
52849;DHT22;38714;53.180;5.812;2022-11-02T18:20:11;10.60;99.90
52849;DHT22;38714;53.180;5.812;2022-11-02T18:22:37;10.70;99.90
52849;DHT22;38714;53.180;5.812;2022-11-02T18:25:08;10.60;99.90
52849;DHT22;38714;53.180;5.812;2022-11-02T18:27:35;10.70;99.90
52849;DHT22;38714;53.180;5.812;2022-11-02T18:30:02;10.70;99.90
52849;DHT22;38714;53.180;5.812;2022-11-02T18:32:27;10.60;99.90
52849;DHT22;38714;53.180;5.812;2022-11-02T18:34:53;10.70;99.90